Time;durP1;ratioP1;P1;durP2;ratioP2;P2;SDS_P1;SDS_P2;PMS_P1;PMS_P2;Temp;Humidity;BMP_temperature;BMP_pressure;BME280_temperature;BME280_humidity;BME280_pressure;Samples;Min_cycle;Max_cycle;Signal;HPM_P1;HPM_P2
2023/03/16 00:00:46;;;;;;;3.37;0.80;;;;;;;8.21;81.97;95792.31;4374022;32;20188;-48
2023/03/16 00:03:18;;;;;;;1.20;1.10;;;;;;;8.12;82.95;95793.09;4390540;32;20259;-48
2023/03/16 00:05:51;;;;;;;0.90;0.90;;;;;;;8.52;84.15;95779.09;4376312;32;20196;-48
2023/03/16 00:08:18;;;;;;;1.37;1.27;;;;;;;8.39;84.12;95787.56;4375058;32;20280;-50
2023/03/16 00:10:46;;;;;;;0.70;0.70;;;;;;;8.29;80.62;95780.41;4389460;32;20280;-48
2023/03/16 00:13:15;;;;;;;1.27;1.17;;;;;;;8.42;83.35;95771.16;4388951;32;20272;-48
2023/03/16 00:15:48;;;;;;;1.27;1.27;;;;;;;8.20;82.58;95768.78;4389617;32;20303;-45
2023/03/16 00:18:13;;;;;;;0.90;0.90;;;;;;;7.91;82.59;95781.75;4383452;32;20328;-49
2023/03/16 00:20:39;;;;;;;0.67;0.67;;;;;;;8.03;84.05;95777.00;4390706;32;20363;-50
2023/03/16 00:23:04;;;;;;;0.80;0.80;;;;;;;8.14;83.07;95780.41;4371582;32;20247;-51
2023/03/16 00:25:32;;;;;;;0.80;0.77;;;;;;;8.41;84.15;95770.37;4385455;32;20299;-48
2023/03/16 00:27:57;;;;;;;2.40;0.90;;;;;;;8.43;80.77;95767.47;4372068;32;20203;-49
2023/03/16 00:30:23;;;;;;;1.90;0.90;;;;;;;8.44;81.03;95774.34;4373049;32;20352;-46
2023/03/16 00:32:48;;;;;;;1.27;1.20;;;;;;;8.58;82.01;95770.84;4390159;32;20188;-49
2023/03/16 00:35:14;;;;;;;1.07;0.77;;;;;;;8.00;80.31;95777.53;4377006;32;20244;-48
2023/03/16 00:37:41;;;;;;;0.83;0.70;;;;;;;8.37;80.88;95768.53;4387781;32;20228;-46
2023/03/16 00:40:08;;;;;;;12.27;1.43;;;;;;;7.86;81.12;95776.50;4389515;32;20204;-52
2023/03/16 00:42:33;;;;;;;0.77;0.77;;;;;;;8.05;81.26;95769.63;4388683;32;20288;-45
2023/03/16 00:45:00;;;;;;;0.67;0.57;;;;;;;7.98;81.05;95766.44;4375397;32;20317;-46
2023/03/16 00:47:28;;;;;;;1.27;1.17;;;;;;;7.88;82.40;95766.47;4390298;32;20200;-48
2023/03/16 00:49:54;;;;;;;1.00;0.93;;;;;;;8.00;79.00;95769.59;4390839;32;20336;-49
2023/03/16 00:52:22;;;;;;;0.90;0.90;;;;;;;7.48;80.69;95770.63;4379169;32;20348;-47
2023/03/16 00:54:47;;;;;;;0.73;0.73;;;;;;;7.73;80.12;95772.50;4389672;32;20277;-48
2023/03/16 00:57:17;;;;;;;0.83;0.83;;;;;;;7.92;80.87;95778.84;4381721;32;20279;-46
2023/03/16 00:59:43;;;;;;;0.83;0.53;;;;;;;8.03;77.51;95779.66;4377826;32;20260;-46
2023/03/16 01:02:10;;;;;;;1.10;0.57;;;;;;;8.21;77.92;95778.31;4390276;32;20291;-45
2023/03/16 01:04:36;;;;;;;0.60;0.60;;;;;;;8.25;77.78;95771.44;4378773;32;20317;-50
2023/03/16 01:07:03;;;;;;;0.80;0.67;;;;;;;7.96;79.38;95767.75;4380742;32;20285;-49
2023/03/16 01:09:29;;;;;;;0.57;0.57;;;;;;;8.10;78.67;95769.63;4386002;32;20184;-45
2023/03/16 01:11:54;;;;;;;0.87;0.83;;;;;;;8.25;77.35;95766.16;4390918;32;20377;-47
2023/03/16 01:14:21;;;;;;;4.47;1.00;;;;;;;8.14;78.05;95764.56;4393252;32;20184;-49
2023/03/16 01:16:47;;;;;;;1.77;1.67;;;;;;;8.22;77.51;95761.38;4378556;32;20212;-50
2023/03/16 01:19:13;;;;;;;1.07;0.80;;;;;;;8.48;77.93;95764.81;4391300;32;20307;-50
2023/03/16 01:21:41;;;;;;;0.83;0.83;;;;;;;8.20;75.42;95764.28;4388255;32;20258;-49
2023/03/16 01:24:07;;;;;;;2.10;1.33;;;;;;;7.53;78.37;95764.56;4375846;32;20283;-49
2023/03/16 01:26:32;;;;;;;0.67;0.67;;;;;;;7.59;77.72;95766.16;4394857;32;20384;-47
2023/03/16 01:28:58;;;;;;;0.30;0.30;;;;;;;7.46;79.36;95767.50;4390789;32;20180;-52
2023/03/16 01:31:23;;;;;;;0.60;0.60;;;;;;;7.58;79.78;95767.22;4372990;32;26939;-48
2023/03/16 01:33:48;;;;;;;4.17;1.33;;;;;;;7.55;77.56;95762.47;4390794;32;20188;-51
2023/03/16 01:39:35;;;;;;;1.40;0.87;;;;;;;7.92;78.90;95767.50;4384388;32;20240;-50
2023/03/16 01:42:01;;;;;;;1.67;1.03;;;;;;;7.85;79.18;95767.78;4378262;32;20284;-51
2023/03/16 01:44:31;;;;;;;0.53;0.53;;;;;;;7.97;78.78;95762.22;4385387;32;20180;-48
2023/03/16 01:46:57;;;;;;;0.93;0.63;;;;;;;7.65;78.40;95762.50;4377534;32;20202;-45
2023/03/16 01:49:32;;;;;;;0.80;0.80;;;;;;;7.66;78.69;95758.00;4384373;32;20393;-48
2023/03/16 01:52:07;;;;;;;1.10;1.07;;;;;;;7.50;79.87;95750.06;4374651;32;20192;-51
2023/03/16 01:54:45;;;;;;;0.83;0.83;;;;;;;7.38;78.96;95746.88;4387392;32;20288;-50
2023/03/16 01:57:17;;;;;;;1.70;1.60;;;;;;;7.09;79.54;95743.91;4386150;32;20306;-48
2023/03/16 01:59:53;;;;;;;0.67;0.67;;;;;;;7.59;78.83;95740.56;4383302;32;20285;-48
2023/03/16 02:02:22;;;;;;;0.70;0.70;;;;;;;7.23;79.70;95746.88;4370707;32;20292;-47
2023/03/16 02:04:56;;;;;;;0.50;0.50;;;;;;;7.68;78.29;95740.06;4379072;32;20287;-46
2023/03/16 02:07:24;;;;;;;0.67;0.67;;;;;;;7.19;79.86;95748.44;4391872;32;20291;-46
2023/03/16 02:09:54;;;;;;;0.43;0.43;;;;;;;7.65;78.22;95737.94;4384013;32;20293;-48
2023/03/16 02:12:20;;;;;;;0.70;0.70;;;;;;;7.79;78.67;95746.91;4364423;32;20331;-51
2023/03/16 02:14:50;;;;;;;0.97;0.97;;;;;;;7.64;79.89;95744.28;4384796;32;20288;-50
2023/03/16 02:17:19;;;;;;;0.50;0.50;;;;;;;7.29;78.99;95745.81;4367263;32;20236;-44
2023/03/16 02:20:22;;;;;;;0.33;0.33;;;;;;;7.51;78.64;95742.94;4384439;32;20334;-49
2023/03/16 02:22:52;;;;;;;0.80;0.80;;;;;;;7.61;79.43;95745.59;4387901;32;20267;-47
2023/03/16 02:25:21;;;;;;;0.53;0.53;;;;;;;7.50;76.59;95749.25;4367439;32;20298;-50
2023/03/16 02:28:16;;;;;;;1.00;1.00;;;;;;;7.47;77.36;95742.69;4358510;32;20292;-48
2023/03/16 02:30:41;;;;;;;0.70;0.70;;;;;;;7.25;77.77;95747.41;4381028;32;20276;-48
2023/03/16 02:33:07;;;;;;;0.50;0.50;;;;;;;6.86;78.49;95753.06;4389527;32;20284;-49
2023/03/16 02:35:33;;;;;;;1.10;1.10;;;;;;;7.09;80.33;95751.81;4373212;32;20248;-46
2023/03/16 02:37:58;;;;;;;0.87;0.87;;;;;;;6.56;81.66;95755.59;4377901;32;20307;-47
2023/03/16 02:40:25;;;;;;;0.80;0.80;;;;;;;7.12;81.06;95753.16;4387928;32;20317;-50
2023/03/16 02:43:02;;;;;;;1.00;1.00;;;;;;;7.40;79.57;95750.06;4374950;32;20192;-48
2023/03/16 02:45:34;;;;;;;1.00;1.00;;;;;;;7.46;79.15;95751.66;4385840;32;20280;-47
2023/03/16 02:48:06;;;;;;;1.13;1.10;;;;;;;6.84;79.69;95742.03;4388098;32;20280;-46
2023/03/16 02:50:32;;;;;;;1.10;1.00;;;;;;;7.21;80.40;95747.13;4384720;32;20306;-46
2023/03/16 02:52:57;;;;;;;0.70;0.70;;;;;;;7.19;80.12;95751.88;4389675;32;20296;-45
2023/03/16 02:55:22;;;;;;;0.73;0.73;;;;;;;7.43;78.18;95749.53;4376436;32;20231;-45
2023/03/16 02:57:48;;;;;;;2.00;1.03;;;;;;;7.51;79.41;95746.34;4390526;32;20193;-47
2023/03/16 03:00:18;;;;;;;0.83;0.83;;;;;;;7.15;80.71;95744.72;4380324;32;20184;-46
2023/03/16 03:02:46;;;;;;;1.03;1.03;;;;;;;6.88;82.07;95740.44;4382906;32;20208;-49
2023/03/16 03:05:11;;;;;;;0.93;0.93;;;;;;;7.19;81.35;95743.16;4388157;32;20272;-47
2023/03/16 03:07:37;;;;;;;0.90;0.90;;;;;;;7.55;80.63;95746.63;4376678;32;20317;-46
2023/03/16 03:10:04;;;;;;;1.80;1.80;;;;;;;7.42;80.71;95741.88;4390185;32;20215;-45
2023/03/16 03:12:31;;;;;;;1.47;1.40;;;;;;;7.54;77.76;95739.75;4388014;32;20222;-46
2023/03/16 03:14:56;;;;;;;1.50;1.43;;;;;;;7.57;78.18;95739.25;4385422;32;20314;-44
2023/03/16 03:17:28;;;;;;;2.03;1.93;;;;;;;7.48;81.02;95736.31;4377000;32;20355;-49
2023/03/16 03:19:55;;;;;;;2.13;2.03;;;;;;;7.23;79.29;95736.31;4386340;32;20181;-45
2023/03/16 03:22:20;;;;;;;1.50;1.43;;;;;;;7.31;79.11;95735.78;4386808;32;20287;-46
2023/03/16 03:24:46;;;;;;;1.90;1.80;;;;;;;7.18;79.17;95742.38;4368431;32;20295;-50
2023/03/16 03:27:11;;;;;;;1.60;1.57;;;;;;;7.02;80.08;95738.13;4387342;32;20172;-49
2023/03/16 03:29:37;;;;;;;2.10;2.00;;;;;;;7.12;79.24;95734.69;4375376;32;20256;-44
2023/03/16 03:32:03;;;;;;;2.73;2.63;;;;;;;7.09;79.26;95743.13;4377402;32;20177;-49
2023/03/16 03:34:30;;;;;;;1.53;1.53;;;;;;;7.18;79.37;95736.28;4373241;32;20189;-47
2023/03/16 03:36:56;;;;;;;3.17;1.97;;;;;;;7.24;79.74;95737.91;4382970;32;20284;-51
2023/03/16 03:39:21;;;;;;;2.23;2.03;;;;;;;7.19;79.94;95738.69;4373513;32;20320;-47
2023/03/16 03:41:46;;;;;;;2.57;2.37;;;;;;;6.84;80.53;95742.03;4390605;32;20189;-45
2023/03/16 03:44:12;;;;;;;4.07;2.00;;;;;;;6.86;80.67;95745.16;4391017;32;20241;-43
2023/03/16 03:46:37;;;;;;;2.43;2.33;;;;;;;7.04;81.18;95735.22;4387128;32;20240;-47
2023/03/16 03:49:04;;;;;;;2.43;2.33;;;;;;;6.92;79.24;95737.28;4392443;32;20180;-48
2023/03/16 03:51:30;;;;;;;1.50;1.50;;;;;;;6.79;80.97;95734.09;4376957;32;20176;-49
2023/03/16 03:53:57;;;;;;;2.13;2.00;;;;;;;6.64;81.84;95731.41;4369319;32;20280;-46
2023/03/16 03:56:23;;;;;;;2.27;2.17;;;;;;;7.09;81.05;95727.28;4382503;32;20285;-48
2023/03/16 03:58:48;;;;;;;2.13;2.03;;;;;;;6.68;78.97;95737.72;4388078;32;20299;-49
2023/03/16 04:01:13;;;;;;;1.90;1.90;;;;;;;7.20;80.26;95732.34;4386415;32;20203;-45
2023/03/16 04:03:39;;;;;;;2.53;2.43;;;;;;;6.84;78.74;95728.03;4376671;32;20199;-46
2023/03/16 04:06:06;;;;;;;1.43;1.43;;;;;;;6.86;80.63;95734.63;4386656;32;20225;-47
2023/03/16 04:08:31;;;;;;;2.07;1.97;;;;;;;6.61;81.05;95737.19;4391904;32;20192;-51
2023/03/16 04:10:57;;;;;;;2.00;1.67;;;;;;;6.71;81.17;95729.31;4386333;32;20349;-50
2023/03/16 04:13:22;;;;;;;1.33;1.33;;;;;;;6.81;80.76;95725.94;4375431;32;20180;-50
2023/03/16 04:15:48;;;;;;;1.97;1.87;;;;;;;7.12;81.19;95717.03;4390785;32;20211;-49
2023/03/16 04:18:13;;;;;;;3.53;2.07;;;;;;;6.99;80.10;95722.00;4376081;32;20256;-46
2023/03/16 04:20:38;;;;;;;2.03;1.93;;;;;;;6.65;79.31;95717.16;4375217;32;20189;-47
2023/03/16 04:23:04;;;;;;;1.67;1.57;;;;;;;6.40;81.96;95730.25;4390313;32;20188;-45
2023/03/16 04:25:29;;;;;;;1.67;1.63;;;;;;;6.82;80.99;95728.31;4377794;32;20177;-45
2023/03/16 04:27:55;;;;;;;1.63;1.57;;;;;;;6.96;80.69;95728.59;4379736;32;20233;-45
2023/03/16 04:30:22;;;;;;;1.53;1.43;;;;;;;6.70;79.38;95730.34;4387427;32;20230;-47
2023/03/16 04:32:47;;;;;;;1.30;1.30;;;;;;;6.68;79.95;95727.19;4390872;32;20227;-48
2023/03/16 04:35:14;;;;;;;2.43;2.33;;;;;;;6.51;81.45;95742.41;4386558;32;20288;-51
2023/03/16 04:37:40;;;;;;;20.90;2.23;;;;;;;6.59;81.01;95736.66;4392153;32;20271;-48
2023/03/16 04:40:10;;;;;;;1.80;1.70;;;;;;;6.92;81.04;95738.06;4388168;32;20315;-49
2023/03/16 04:42:36;;;;;;;2.10;1.90;;;;;;;6.53;81.95;95741.09;4377280;32;20288;-46
2023/03/16 04:45:02;;;;;;;1.23;1.23;;;;;;;6.44;80.46;95741.88;4388271;32;20284;-45
2023/03/16 04:47:29;;;;;;;1.50;1.50;;;;;;;6.25;82.16;95738.84;4390082;32;20197;-48
2023/03/16 04:49:54;;;;;;;3.97;1.73;;;;;;;6.62;81.53;95735.34;4379432;32;20337;-50
2023/03/16 04:52:19;;;;;;;2.17;2.07;;;;;;;6.39;82.15;95728.66;4378268;32;20284;-47
2023/03/16 04:54:45;;;;;;;1.90;1.80;;;;;;;6.32;80.55;95726.25;4372427;32;20240;-50
2023/03/16 04:57:10;;;;;;;0.63;0.63;;;;;;;6.27;81.77;95720.94;4394046;32;20200;-46
2023/03/16 04:59:35;;;;;;;1.13;1.13;;;;;;;6.48;80.89;95721.81;4391839;32;20180;-46
2023/03/16 05:02:01;;;;;;;2.07;1.60;;;;;;;6.48;80.21;95716.56;4379624;32;20264;-49
2023/03/16 05:04:26;;;;;;;2.40;2.07;;;;;;;6.49;81.94;95723.41;4387773;32;20185;-49
2023/03/16 05:06:52;;;;;;;1.70;1.70;;;;;;;6.52;80.76;95722.91;4389737;32;20191;-49
2023/03/16 05:09:19;;;;;;;1.83;1.73;;;;;;;6.25;81.81;95716.97;4372418;32;20232;-46
2023/03/16 05:11:44;;;;;;;1.57;1.57;;;;;;;6.32;81.02;95713.06;4373510;32;20175;-48
2023/03/16 05:14:10;;;;;;;1.53;1.50;;;;;;;6.11;78.94;95714.00;4391971;32;20302;-48
2023/03/16 05:16:35;;;;;;;1.87;1.77;;;;;;;6.03;81.78;95714.47;4390180;32;20263;-44
2023/03/16 05:19:01;;;;;;;1.33;1.33;;;;;;;6.30;81.53;95702.00;4386789;32;20206;-45
2023/03/16 05:21:26;;;;;;;2.67;2.30;;;;;;;6.70;80.18;95709.25;4378755;32;20192;-50
2023/03/16 05:23:52;;;;;;;1.30;1.30;;;;;;;6.85;79.21;95701.44;4369437;32;20188;-48
2023/03/16 05:26:19;;;;;;;1.37;1.37;;;;;;;6.68;79.88;95700.81;4387026;32;20253;-46
2023/03/16 05:28:44;;;;;;;1.57;1.57;;;;;;;6.49;79.01;95697.84;4371950;32;20184;-46
2023/03/16 05:31:10;;;;;;;1.50;1.50;;;;;;;6.46;79.09;95692.31;4387050;32;20290;-51
2023/03/16 05:33:36;;;;;;;2.00;1.83;;;;;;;6.44;78.79;95695.19;4386729;32;20250;-46
2023/03/16 05:36:02;;;;;;;5.63;1.77;;;;;;;6.61;79.79;95702.13;4392890;32;20311;-48
2023/03/16 05:38:30;;;;;;;2.57;1.33;;;;;;;6.27;79.70;95697.22;4385218;32;20234;-46
2023/03/16 05:41:00;;;;;;;1.47;1.43;;;;;;;6.73;80.70;95700.06;4389986;32;20295;-47
2023/03/16 05:43:27;;;;;;;2.80;1.90;;;;;;;6.42;79.36;95696.53;4378614;32;20379;-48
2023/03/16 05:45:52;;;;;;;1.53;1.53;;;;;;;6.64;79.81;95707.69;4378145;32;20347;-46
2023/03/16 05:48:24;;;;;;;1.90;1.80;;;;;;;6.38;80.27;95706.78;4376936;32;20284;-48
2023/03/16 05:50:50;;;;;;;2.43;2.33;;;;;;;6.45;78.81;95707.31;4372510;32;20181;-48
2023/03/16 05:53:16;;;;;;;1.30;1.30;;;;;;;6.30;80.84;95698.56;4383487;32;20342;-49
2023/03/16 05:55:41;;;;;;;1.50;1.50;;;;;;;6.60;80.83;95695.28;4373727;32;20364;-48
2023/03/16 05:58:06;;;;;;;4.00;1.73;;;;;;;6.15;81.02;95692.19;4381703;32;20269;-44
2023/03/16 06:00:32;;;;;;;1.70;1.60;;;;;;;6.05;80.26;95696.59;4380401;32;20205;-48
2023/03/16 06:02:57;;;;;;;1.93;1.83;;;;;;;5.95;79.88;95704.44;4392304;32;20218;-44
2023/03/16 06:05:23;;;;;;;2.07;1.53;;;;;;;6.47;83.20;95702.59;4390728;32;20188;-47
2023/03/16 06:07:50;;;;;;;2.53;1.70;;;;;;;6.65;79.03;95703.97;4378333;32;20200;-47
2023/03/16 06:10:16;;;;;;;2.23;1.37;;;;;;;6.64;78.99;95705.03;4392306;32;20387;-49
2023/03/16 06:12:43;;;;;;;1.63;1.53;;;;;;;6.90;77.62;95696.13;4388763;32;20277;-47
2023/03/16 06:15:10;;;;;;;1.23;1.23;;;;;;;6.92;77.05;95700.34;4373356;32;20193;-46
2023/03/16 06:17:36;;;;;;;1.77;1.67;;;;;;;6.73;79.13;95698.22;4388457;32;20355;-47
2023/03/16 06:20:08;;;;;;;1.63;1.53;;;;;;;6.81;78.12;95700.34;4377216;32;20296;-48
2023/03/16 06:22:33;;;;;;;1.53;1.43;;;;;;;6.88;77.38;95708.00;4378861;32;20291;-48
2023/03/16 06:24:59;;;;;;;1.10;1.10;;;;;;;6.76;77.88;95699.53;4390698;32;20283;-49
2023/03/16 06:27:25;;;;;;;1.30;1.30;;;;;;;6.43;77.57;95708.66;4387835;32;20280;-45
2023/03/16 06:29:50;;;;;;;1.63;1.20;;;;;;;6.42;77.02;95713.12;4370475;32;20256;-49
2023/03/16 06:32:15;;;;;;;2.07;1.97;;;;;;;6.44;78.72;95716.28;4375520;32;20338;-50
2023/03/16 06:34:41;;;;;;;1.90;1.80;;;;;;;6.19;78.94;95713.53;4388123;32;20189;-52
2023/03/16 06:37:06;;;;;;;2.10;2.00;;;;;;;6.93;78.41;95713.28;4391859;32;20203;-50
2023/03/16 06:39:32;;;;;;;2.07;1.97;;;;;;;7.28;75.97;95714.41;4392938;32;20187;-49
2023/03/16 06:41:57;;;;;;;1.30;1.30;;;;;;;6.71;74.85;95720.59;4385497;32;20230;-50
2023/03/16 06:44:23;;;;;;;2.70;2.53;;;;;;;6.81;76.50;95721.44;4376882;32;20180;-51
2023/03/16 06:46:48;;;;;;;1.20;1.20;;;;;;;6.82;78.24;95722.25;4372283;32;20255;-44
2023/03/16 06:49:13;;;;;;;1.13;1.13;;;;;;;7.29;76.42;95716.78;4372364;32;20188;-52
2023/03/16 06:51:39;;;;;;;1.03;1.03;;;;;;;7.02;77.01;95726.78;4376978;32;20192;-48
2023/03/16 06:54:04;;;;;;;0.87;0.87;;;;;;;6.88;76.90;95721.97;4378542;32;20180;-47
2023/03/16 06:56:30;;;;;;;1.80;1.70;;;;;;;6.96;77.33;95717.25;4374195;32;20188;-47
2023/03/16 06:58:56;;;;;;;1.50;1.50;;;;;;;6.88;76.97;95711.44;4374119;32;20184;-45
2023/03/16 07:01:21;;;;;;;2.00;1.90;;;;;;;6.79;77.70;95717.47;4377196;32;20297;-49
2023/03/16 07:03:47;;;;;;;5.57;2.03;;;;;;;7.13;76.19;95718.59;4391232;32;20185;-47
2023/03/16 07:06:12;;;;;;;2.10;2.00;;;;;;;7.11;76.35;95715.44;4367703;32;20248;-46
2023/03/16 07:08:38;;;;;;;1.87;1.57;;;;;;;6.78;74.64;95716.69;4376981;32;20192;-46
2023/03/16 07:11:03;;;;;;;5.50;2.97;;;;;;;7.05;79.39;95707.78;4392770;32;20180;-45
2023/03/16 07:13:29;;;;;;;2.23;2.13;;;;;;;7.09;81.33;95706.19;4374929;32;20184;-50
2023/03/16 07:15:54;;;;;;;1.60;1.60;;;;;;;7.08;80.70;95709.87;4388084;32;20299;-47
2023/03/16 07:18:21;;;;;;;2.07;1.97;;;;;;;6.97;81.29;95703.00;4373216;32;20281;-50
2023/03/16 07:20:46;;;;;;;2.47;2.33;;;;;;;7.17;80.84;95703.84;4368240;32;20241;-46
2023/03/16 07:23:12;;;;;;;4.13;3.83;;;;;;;7.16;79.61;95701.47;4389476;32;20269;-44
2023/03/16 07:25:37;;;;;;;1.97;1.87;;;;;;;6.98;79.16;95709.87;4376022;32;20211;-50
2023/03/16 07:28:03;;;;;;;1.73;1.63;;;;;;;6.80;79.20;95722.50;4390685;32;20210;-45
2023/03/16 07:30:28;;;;;;;2.50;2.33;;;;;;;6.95;80.34;95711.19;4375415;32;20188;-48
2023/03/16 07:32:54;;;;;;;1.80;1.70;;;;;;;7.38;84.07;95707.28;4387096;32;20264;-45
2023/03/16 07:35:20;;;;;;;2.10;2.00;;;;;;;6.97;79.58;95708.28;4390814;32;20188;-49
2023/03/16 07:37:46;;;;;;;1.80;1.73;;;;;;;7.03;78.07;95707.25;4390233;32;20219;-48
2023/03/16 07:40:12;;;;;;;1.60;1.60;;;;;;;7.13;80.38;95707.25;4377216;32;20196;-46
2023/03/16 07:42:38;;;;;;;1.97;1.87;;;;;;;7.13;80.37;95710.69;4376845;32;20199;-45
2023/03/16 07:45:04;;;;;;;2.43;2.27;;;;;;;7.45;81.51;95712.31;4376726;32;20279;-46
2023/03/16 07:47:30;;;;;;;2.07;1.97;;;;;;;7.02;76.47;95721.50;4388955;32;20247;-46
2023/03/16 07:49:56;;;;;;;1.17;1.17;;;;;;;7.16;79.74;95717.28;4374505;32;20284;-47
2023/03/16 07:52:21;;;;;;;2.50;1.97;;;;;;;7.38;79.40;95719.69;4388977;32;20198;-47
2023/03/16 07:54:47;;;;;;;1.53;1.53;;;;;;;7.12;80.98;95726.78;4373704;32;20223;-50
2023/03/16 07:57:13;;;;;;;1.03;1.03;;;;;;;6.49;75.43;95733.97;4387567;32;20188;-49
2023/03/16 07:59:38;;;;;;;2.37;2.17;;;;;;;5.99;74.94;95739.75;4377986;32;20188;-49
2023/03/16 08:02:04;;;;;;;1.50;1.50;;;;;;;5.35;76.95;95745.03;4395727;32;20235;-49
2023/03/16 08:04:30;;;;;;;2.17;2.07;;;;;;;4.78;79.20;95743.62;4379325;32;20184;-49
2023/03/16 08:06:59;;;;;;;1.67;1.67;;;;;;;4.75;79.29;95736.28;4388061;32;20288;-49
2023/03/16 08:09:25;;;;;;;2.30;2.20;;;;;;;4.69;81.15;95747.75;4388015;32;20181;-51
2023/03/16 08:11:50;;;;;;;2.47;2.37;;;;;;;4.82;80.20;95757.09;4393909;32;20303;-50
2023/03/16 08:14:16;;;;;;;2.60;2.47;;;;;;;4.65;80.97;95751.91;4377804;32;20327;-51
2023/03/16 08:16:41;;;;;;;2.07;1.97;;;;;;;4.77;80.29;95755.22;4393134;32;20184;-54
2023/03/16 08:19:07;;;;;;;1.67;1.67;;;;;;;4.72;80.41;95759.62;4370208;32;20204;-50
2023/03/16 08:21:32;;;;;;;1.00;1.00;;;;;;;4.66;81.07;95752.69;4392201;32;20212;-48
2023/03/16 08:23:58;;;;;;;1.13;1.13;;;;;;;4.62;81.37;95762.91;4390666;32;20310;-53
2023/03/16 08:26:25;;;;;;;1.17;1.17;;;;;;;4.53;82.13;95764.38;4388037;32;20230;-52
2023/03/16 08:28:51;;;;;;;1.23;1.23;;;;;;;4.48;82.49;95761.69;4378776;32;20201;-49
2023/03/16 08:31:17;;;;;;;1.50;1.40;;;;;;;4.23;82.76;95763.97;4392823;32;20381;-50
2023/03/16 08:33:45;;;;;;;1.40;1.40;;;;;;;4.24;83.75;95770.81;4376277;32;20206;-50
2023/03/16 08:36:14;;;;;;;5.93;5.33;;;;;;;4.41;82.96;95761.84;4392166;32;20275;-50
2023/03/16 08:38:40;;;;;;;4.63;4.33;;;;;;;4.40;83.00;95759.47;4387812;32;20287;-52
2023/03/16 08:41:05;;;;;;;3.73;3.43;;;;;;;4.90;82.24;95755.87;4377531;32;20291;-50
2023/03/16 08:43:31;;;;;;;3.53;3.30;;;;;;;4.79;81.51;95758.38;4391234;32;20357;-47
2023/03/16 08:45:57;;;;;;;1.33;1.23;;;;;;;4.88;81.03;95760.56;4391886;32;20215;-46
2023/03/16 08:48:23;;;;;;;1.20;1.20;;;;;;;5.45;87.31;95755.63;4371008;32;20194;-46
2023/03/16 08:50:50;;;;;;;7.10;2.20;;;;;;;8.79;97.12;95741.69;4387783;32;20284;-44
2023/03/16 08:53:16;;;;;;;1.77;1.67;;;;;;;10.47;79.23;95741.25;4379673;32;20250;-44
2023/03/16 08:55:41;;;;;;;1.40;1.40;;;;;;;11.67;68.91;95738.09;4391313;32;20284;-46
2023/03/16 08:58:08;;;;;;;1.80;1.70;;;;;;;12.69;60.03;95733.69;4393036;32;20195;-44
2023/03/16 09:00:34;;;;;;;1.43;1.40;;;;;;;13.17;59.13;95728.75;4388446;32;20195;-45
2023/03/16 09:02:59;;;;;;;1.80;1.70;;;;;;;13.57;54.12;95735.06;4375198;32;20189;-46
2023/03/16 09:05:25;;;;;;;1.60;1.50;;;;;;;13.74;54.92;95735.19;4375797;32;20275;-43
2023/03/16 09:07:52;;;;;;;1.10;1.10;;;;;;;13.90;52.60;95732.16;4373830;32;20190;-46
2023/03/16 09:10:18;;;;;;;2.77;1.63;;;;;;;14.11;51.06;95733.25;4389729;32;20202;-46
2023/03/16 09:12:44;;;;;;;1.13;1.13;;;;;;;14.05;52.49;95737.91;4375624;32;20236;-46
2023/03/16 09:15:11;;;;;;;2.30;2.10;;;;;;;13.87;51.79;95733.56;4378734;32;20198;-43
2023/03/16 09:17:38;;;;;;;1.47;1.47;;;;;;;13.91;51.98;95733.75;4378512;32;20291;-45
2023/03/16 09:20:08;;;;;;;2.07;1.80;;;;;;;13.92;51.58;95730.78;4386241;32;20217;-45
2023/03/16 09:22:34;;;;;;;1.37;1.37;;;;;;;13.87;51.62;95732.78;4388864;32;20207;-45
2023/03/16 09:24:59;;;;;;;1.93;1.83;;;;;;;13.77;50.97;95734.56;4374778;32;20201;-47
2023/03/16 09:27:25;;;;;;;1.80;1.77;;;;;;;13.56;51.66;95741.47;4376739;32;20292;-43
2023/03/16 09:29:51;;;;;;;1.70;1.60;;;;;;;13.54;51.64;95740.97;4367344;32;20216;-44
2023/03/16 09:32:17;;;;;;;2.20;2.07;;;;;;;13.59;50.27;95738.22;4374589;32;20231;-43
2023/03/16 09:34:43;;;;;;;1.47;1.47;;;;;;;13.56;51.04;95736.12;4374214;32;20215;-45
2023/03/16 09:37:09;;;;;;;2.10;2.00;;;;;;;13.57;50.50;95735.06;4385428;32;20244;-43
2023/03/16 09:39:34;;;;;;;3.30;2.33;;;;;;;13.83;49.49;95742.47;4377293;32;20196;-46
2023/03/16 09:42:19;;;;;;;2.83;2.73;;;;;;;14.29;48.28;95737.59;4377712;32;20180;-45
2023/03/16 09:45:02;;;;;;;10.70;2.90;;;;;;;14.52;48.08;95740.25;4365329;32;20188;-45
2023/03/16 09:47:31;;;;;;;4.13;3.73;;;;;;;14.48;49.02;95739.28;4389409;32;20220;-43
2023/03/16 09:50:01;;;;;;;4.20;3.80;;;;;;;14.68;48.05;95742.19;4389704;32;20207;-43
2023/03/16 09:52:56;;;;;;;3.33;3.13;;;;;;;14.68;48.80;95744.06;4382931;32;20204;-43
2023/03/16 09:55:45;;;;;;;2.20;2.10;;;;;;;14.75;47.78;95744.41;4371530;32;20210;-51
2023/03/16 09:58:48;;;;;;;1.67;1.67;;;;;;;12.83;48.47;95741.69;4371414;32;20191;-52
2023/03/16 10:01:34;;;;;;;2.77;2.60;;;;;;;9.85;56.38;95748.19;4391505;32;20192;-53
2023/03/16 10:07:40;;;;;;;5.53;2.33;;;;;;;8.62;62.25;95736.72;4388865;32;20195;-54
2023/03/16 10:10:30;;;;;;;5.20;2.90;;;;;;;7.56;66.28;95743.72;4385489;32;20222;-59
2023/03/16 10:12:59;;;;;;;1.53;1.43;;;;;;;7.40;67.77;95738.69;4377724;32;20298;-54
2023/03/16 10:15:28;;;;;;;1.33;1.33;;;;;;;7.56;67.33;95738.44;4384558;32;20195;-55
2023/03/16 10:18:12;;;;;;;2.03;1.93;;;;;;;7.50;67.38;95734.22;4388581;32;20280;-52
2023/03/16 10:20:40;;;;;;;1.23;1.23;;;;;;;7.50;67.99;95734.22;4374961;32;20180;-51
2023/03/16 10:23:34;;;;;;;1.70;1.60;;;;;;;7.44;68.67;95735.28;4388701;32;20344;-53
2023/03/16 10:26:06;;;;;;;2.03;1.87;;;;;;;7.14;69.73;95727.31;4385148;32;20290;-54
2023/03/16 10:28:31;;;;;;;1.57;1.47;;;;;;;7.33;69.71;95728.41;4375595;32;20405;-54
2023/03/16 10:30:59;;;;;;;1.80;1.70;;;;;;;7.36;69.93;95727.09;4390853;32;20295;-54
2023/03/16 10:33:32;;;;;;;2.60;2.50;;;;;;;7.57;69.68;95724.19;4375429;32;20192;-55
2023/03/16 10:36:32;;;;;;;1.50;1.50;;;;;;;7.26;69.57;95717.31;4389977;32;20314;-52
2023/03/16 10:39:02;;;;;;;1.70;1.60;;;;;;;7.44;68.09;95716.03;4370773;32;20284;-52
2023/03/16 10:41:31;;;;;;;2.23;2.13;;;;;;;7.18;68.43;95705.44;4376111;32;20284;-52
2023/03/16 10:44:00;;;;;;;1.30;1.20;;;;;;;7.14;69.02;95707.00;4388131;32;20276;-51
2023/03/16 10:46:27;;;;;;;1.43;1.43;;;;;;;7.02;70.36;95708.31;4385873;32;20372;-50
2023/03/16 10:49:00;;;;;;;1.20;1.20;;;;;;;6.98;70.74;95709.87;4390877;32;20306;-51
2023/03/16 10:51:31;;;;;;;1.30;1.30;;;;;;;7.08;70.75;95696.69;4390738;32;20480;-50
2023/03/16 10:54:29;;;;;;;1.53;1.43;;;;;;;7.16;70.57;95701.47;4371429;32;20313;-51
2023/03/16 10:56:55;;;;;;;1.90;1.80;;;;;;;6.90;71.95;95704.03;4369214;32;20292;-50
2023/03/16 10:59:33;;;;;;;1.23;1.23;;;;;;;7.12;71.43;95703.03;4386565;32;20317;-53
2023/03/16 11:02:24;;;;;;;1.13;1.13;;;;;;;6.90;71.72;95693.50;4370082;32;20303;-52
2023/03/16 11:04:49;;;;;;;1.93;1.83;;;;;;;6.66;72.81;95692.38;4390028;32;20280;-53
2023/03/16 11:07:22;;;;;;;1.77;1.67;;;;;;;6.76;73.10;95692.41;4376889;32;20303;-50
2023/03/16 11:09:51;;;;;;;1.73;1.63;;;;;;;6.80;73.77;95682.94;4377314;32;20254;-51
2023/03/16 11:12:29;;;;;;;3.23;2.53;;;;;;;7.11;72.81;95677.72;4377242;32;20300;-54
2023/03/16 11:15:03;;;;;;;1.37;1.27;;;;;;;7.22;72.18;95681.97;4377507;32;20307;-52
2023/03/16 11:17:43;;;;;;;1.77;1.50;;;;;;;7.38;71.91;95678.25;4389535;32;20280;-50
2023/03/16 11:20:17;;;;;;;2.93;2.10;;;;;;;7.25;72.10;95670.88;4388085;32;20359;-54
2023/03/16 11:22:46;;;;;;;2.00;1.90;;;;;;;7.14;72.05;95671.91;4387578;32;20283;-52
2023/03/16 11:25:32;;;;;;;2.00;1.90;;;;;;;7.12;71.99;95668.75;4378483;32;20326;-52
2023/03/16 11:28:31;;;;;;;2.23;2.13;;;;;;;7.19;72.08;95669.28;4389748;32;20290;-52
2023/03/16 11:31:20;;;;;;;1.23;1.23;;;;;;;7.16;71.92;95670.59;4379248;32;20280;-53
2023/03/16 11:33:47;;;;;;;2.33;2.23;;;;;;;7.34;71.24;95665.84;4389100;32;20339;-52
2023/03/16 11:36:37;;;;;;;2.10;2.00;;;;;;;7.11;71.63;95661.88;4390423;32;20276;-53
2023/03/16 11:39:30;;;;;;;1.97;1.87;;;;;;;7.23;71.07;95668.50;4390343;32;20288;-52
2023/03/16 11:42:03;;;;;;;3.87;2.23;;;;;;;7.24;71.18;95664.81;4375149;32;20356;-52
2023/03/16 11:44:49;;;;;;;1.77;1.67;;;;;;;7.44;70.92;95653.47;4367556;32;20280;-54
2023/03/16 11:47:29;;;;;;;1.13;1.13;;;;;;;7.47;71.07;95644.22;4371745;32;20329;-51
2023/03/16 11:50:19;;;;;;;1.87;1.77;;;;;;;7.53;71.45;95643.16;4390852;32;20276;-54
2023/03/16 11:53:03;;;;;;;1.77;1.67;;;;;;;7.50;69.96;95641.81;4387661;32;20311;-54
2023/03/16 11:55:50;;;;;;;1.43;1.43;;;;;;;7.42;69.67;95631.81;4388637;32;20264;-53